Aviation Digital Data Service (ADDS)

Output produced by METARs form (1123 UTC 06 July 2015)
found at http://www.aviationweather.gov/adds/metars/
 
KILG 061051Z 08006KT 6SM BR SCT010 BKN110 22/21 A3014 RMK AO2 SLP206 T02220211
KILG 061031Z 0611/0706 08005KT P6SM VCSH OVC008 
     FM061300 11007KT P6SM VCSH OVC070 
     FM061700 14009KT P6SM VCSH BKN070 
     TEMPO 0619/0622 4SM TSRA OVC040CB 
     FM070000 13008KT P6SM SCT050 BKN150